createdAt,value
2022-11-24T06:02:14.241Z,14.60
2022-11-24T06:04:41.642Z,15.17
2022-11-24T06:07:10.049Z,15.50
2022-11-24T06:09:38.020Z,15.00
2022-11-24T06:12:05.849Z,14.73
2022-11-24T06:14:33.510Z,15.07
2022-11-24T06:17:01.009Z,15.47
2022-11-24T06:19:28.271Z,15.43
2022-11-24T06:21:55.532Z,16.27
2022-11-24T06:24:22.873Z,15.50
2022-11-24T06:26:50.320Z,15.60
2022-11-24T06:29:17.626Z,14.83
2022-11-24T06:31:44.954Z,15.60
2022-11-24T06:34:13.814Z,15.97
2022-11-24T06:36:41.196Z,15.67
2022-11-24T06:39:08.527Z,16.00
2022-11-24T06:41:35.769Z,16.00
2022-11-24T06:44:03.755Z,16.53
2022-11-24T06:46:31.081Z,16.73
2022-11-24T06:48:59.795Z,16.73
2022-11-24T06:51:27.769Z,17.43
2022-11-24T06:53:55.424Z,17.80
2022-11-24T06:56:22.698Z,18.33
2022-11-24T06:58:51.057Z,17.70
2022-11-24T07:01:19.411Z,18.03
2022-11-24T07:03:48.214Z,17.63
2022-11-24T07:06:15.743Z,18.27
2022-11-24T07:08:43.603Z,17.47
2022-11-24T07:11:16.311Z,16.90
2022-11-24T07:13:43.880Z,16.73
2022-11-24T07:16:21.205Z,17.50
2022-11-24T07:18:49.272Z,17.57
2022-11-24T07:21:16.602Z,16.97
2022-11-24T07:23:43.957Z,16.60
2022-11-24T07:26:11.633Z,17.63
2022-11-24T07:28:39.191Z,18.43
2022-11-24T07:31:13.135Z,18.13
2022-11-24T07:33:40.654Z,17.90
2022-11-24T07:36:08.582Z,16.97
2022-11-24T07:38:36.427Z,17.93
2022-11-24T07:41:04.538Z,17.17
2022-11-24T07:43:32.354Z,17.57
2022-11-24T07:45:59.900Z,17.57
2022-11-24T07:48:27.221Z,16.23
2022-11-24T07:50:56.297Z,16.33
2022-11-24T07:53:23.888Z,16.63
2022-11-24T07:56:00.313Z,16.43
2022-11-24T07:58:32.390Z,16.80
2022-11-24T08:01:00.504Z,21.93
2022-11-24T08:03:27.980Z,15.57
2022-11-24T08:08:46.748Z,14.90
2022-11-24T08:11:15.503Z,15.57
2022-11-24T08:13:42.784Z,14.40
2022-11-24T08:16:15.100Z,13.87
2022-11-24T08:18:42.907Z,14.87
2022-11-24T08:21:14.324Z,14.43
2022-11-24T08:23:41.822Z,15.00
2022-11-24T08:26:10.866Z,13.77
2022-11-24T08:28:38.279Z,14.60
2022-11-24T08:31:07.208Z,14.77
2022-11-24T08:33:34.538Z,14.17
2022-11-24T08:36:05.987Z,14.23
2022-11-24T08:38:33.334Z,14.07
2022-11-24T08:41:02.226Z,15.67
2022-11-24T08:43:29.570Z,15.10
2022-11-24T08:45:59.742Z,15.67
2022-11-24T08:48:27.581Z,14.80
2022-11-24T08:50:54.908Z,14.87
2022-11-24T08:53:22.262Z,15.17
2022-11-24T08:55:49.550Z,14.57
2022-11-24T08:58:16.886Z,15.17
2022-11-24T09:00:44.348Z,15.57
2022-11-24T09:03:12.555Z,14.80
2022-11-24T09:05:55.214Z,15.77
2022-11-24T09:08:22.470Z,15.10
2022-11-24T09:10:49.751Z,16.30
2022-11-24T09:13:17.051Z,15.00
2022-11-24T09:15:45.381Z,15.80
2022-11-24T09:18:12.614Z,16.20
2022-11-24T09:20:39.843Z,15.30
2022-11-24T09:23:07.144Z,16.13
2022-11-24T09:25:34.490Z,15.10
2022-11-24T09:28:01.784Z,15.30
2022-11-24T09:30:29.071Z,16.00
2022-11-24T09:32:59.166Z,16.60
2022-11-24T09:35:26.416Z,15.07
2022-11-24T09:37:53.681Z,14.83
2022-11-24T09:40:21.007Z,15.53
2022-11-24T09:42:59.542Z,16.07
2022-11-24T09:46:04.547Z,16.00
2022-11-24T09:48:34.251Z,15.67
2022-11-24T09:51:02.555Z,16.77
2022-11-24T09:53:37.413Z,15.90
2022-11-24T09:56:21.309Z,16.30
2022-11-24T09:58:51.286Z,17.23
2022-11-24T10:01:18.626Z,16.43
2022-11-24T10:03:52.778Z,17.07
2022-11-24T10:06:20.043Z,17.33
2022-11-24T10:08:47.257Z,17.93
2022-11-24T10:11:16.609Z,16.93
2022-11-24T10:14:00.811Z,18.10
2022-11-24T10:16:47.387Z,17.33
2022-11-24T10:19:14.682Z,16.23
2022-11-24T10:21:47.772Z,17.07
2022-11-24T10:24:33.764Z,16.17
2022-11-24T10:27:10.548Z,16.57
2022-11-24T10:29:40.674Z,17.50
2022-11-24T10:32:28.244Z,17.23
2022-11-24T10:35:00.023Z,17.27
2022-11-24T10:37:33.304Z,17.37
2022-11-24T10:40:33.392Z,17.20
2022-11-24T10:43:05.270Z,17.77
2022-11-24T10:45:32.830Z,16.47
2022-11-24T10:48:00.041Z,17.07
2022-11-24T10:50:37.606Z,17.93
2022-11-24T10:53:25.117Z,17.07
2022-11-24T10:55:55.472Z,17.53
2022-11-24T10:58:38.010Z,17.23
2022-11-24T11:01:14.757Z,17.23
2022-11-24T11:03:48.063Z,17.17
2022-11-24T11:06:16.431Z,17.73
2022-11-24T11:08:43.717Z,18.97
2022-11-24T11:11:14.760Z,18.87
2022-11-24T11:14:00.068Z,19.20
2022-11-24T11:16:39.883Z,19.87
2022-11-24T11:19:53.259Z,20.97
2022-11-24T11:22:24.822Z,18.97
2022-11-24T11:25:03.065Z,18.90
2022-11-24T11:27:30.409Z,18.80
2022-11-24T11:35:51.963Z,19.23
2022-11-24T11:38:19.828Z,19.87
2022-11-24T11:40:49.966Z,20.90
2022-11-24T11:43:27.539Z,20.53
2022-11-24T11:46:00.515Z,20.13
2022-11-24T11:48:42.732Z,19.63
2022-11-24T11:51:26.653Z,20.80
2022-11-24T11:54:12.036Z,20.33
2022-11-24T11:56:44.313Z,20.43
2022-11-24T11:59:23.765Z,20.97
2022-11-24T12:01:54.230Z,20.43
2022-11-24T12:04:36.228Z,19.87
2022-11-24T12:07:15.710Z,20.33
2022-11-24T12:09:52.162Z,21.17
2022-11-24T12:12:19.382Z,22.03
2022-11-24T12:15:10.311Z,22.33
2022-11-24T12:17:43.603Z,22.63
2022-11-24T12:20:25.904Z,21.93
2022-11-24T12:22:58.105Z,21.87
2022-11-24T12:25:31.119Z,22.63
2022-11-24T12:28:17.577Z,21.57
2022-11-24T12:31:03.738Z,22.23
2022-11-24T12:33:30.979Z,21.13
2022-11-24T12:36:04.454Z,20.93
2022-11-24T12:38:46.561Z,21.07
2022-11-24T12:44:28.651Z,20.43
2022-11-24T12:47:14.404Z,22.63
2022-11-24T12:49:56.694Z,22.50
2022-11-24T12:52:29.375Z,24.63
2022-11-24T12:54:57.230Z,23.40
2022-11-24T12:57:45.384Z,24.20
2022-11-24T13:00:18.930Z,24.70
2022-11-24T13:03:06.198Z,24.07
2022-11-24T13:05:33.600Z,23.93
2022-11-24T13:08:02.285Z,25.47
2022-11-24T13:10:57.211Z,22.77
2022-11-24T13:13:28.405Z,21.20
2022-11-24T13:18:58.413Z,20.73
2022-11-24T13:21:29.398Z,20.73
2022-11-24T13:24:06.912Z,21.77
2022-11-24T13:26:43.204Z,21.33
2022-11-24T13:29:28.956Z,22.07
2022-11-24T13:31:57.171Z,22.57
2022-11-24T13:34:39.711Z,21.40
2022-11-24T13:37:31.652Z,22.23
2022-11-24T13:40:22.719Z,23.73
2022-11-24T13:42:57.271Z,24.07
2022-11-24T13:45:40.080Z,24.20
2022-11-24T13:48:20.198Z,23.43
2022-11-24T13:50:51.072Z,23.00
2022-11-24T13:53:37.189Z,23.40
2022-11-24T13:56:22.174Z,23.43
2022-11-24T13:58:56.966Z,22.47
2022-11-24T14:01:25.394Z,22.77
2022-11-24T14:04:29.880Z,23.87
2022-11-24T14:07:07.037Z,24.13
2022-11-24T14:09:37.255Z,25.00
2022-11-24T14:12:07.451Z,25.20
2022-11-24T14:14:35.147Z,25.63
2022-11-24T14:17:11.477Z,26.03
2022-11-24T14:19:38.871Z,25.50
2022-11-24T14:22:06.176Z,24.87
2022-11-24T14:24:39.723Z,25.13
2022-11-24T14:27:14.425Z,26.13
2022-11-24T14:29:57.016Z,26.13
2022-11-24T14:32:24.974Z,24.47
2022-11-24T14:34:55.656Z,25.17
2022-11-24T14:37:23.121Z,26.10
2022-11-24T14:39:50.529Z,24.30
2022-11-24T14:42:21.001Z,25.53
2022-11-24T14:45:01.072Z,25.27
2022-11-24T14:47:32.885Z,25.60
2022-11-24T14:50:20.555Z,25.90
2022-11-24T14:52:54.740Z,24.67
2022-11-24T14:55:32.319Z,25.13
2022-11-24T14:58:00.303Z,24.97
2022-11-24T15:00:32.015Z,24.00
2022-11-24T15:03:02.389Z,23.73
2022-11-24T15:05:55.854Z,23.80
2022-11-24T15:08:24.055Z,23.20
2022-11-24T15:10:56.527Z,22.67
2022-11-24T15:13:27.341Z,23.30
2022-11-24T15:16:02.433Z,22.87
2022-11-24T15:18:38.264Z,21.80
2022-11-24T15:21:17.242Z,23.07
2022-11-24T15:24:05.050Z,24.10
2022-11-24T15:26:39.996Z,22.97
2022-11-24T15:29:07.733Z,22.30
2022-11-24T15:31:37.051Z,22.00
2022-11-24T15:34:04.818Z,22.50
2022-11-24T15:36:34.179Z,22.80
2022-11-24T15:39:02.494Z,22.13
2022-11-24T15:41:36.151Z,21.87
2022-11-24T15:44:05.966Z,23.30
2022-11-24T15:46:45.753Z,22.33
2022-11-24T15:49:13.279Z,22.20
2022-11-24T15:51:43.289Z,21.37
2022-11-24T15:54:14.053Z,23.93
2022-11-24T15:56:42.050Z,23.07
2022-11-24T15:59:20.387Z,22.47
2022-11-24T16:01:51.137Z,23.87
2022-11-24T16:04:18.772Z,36.57
2022-11-24T16:06:46.233Z,23.77
2022-11-24T16:09:15.953Z,23.33
2022-11-24T16:11:45.565Z,24.40
2022-11-24T16:14:14.350Z,23.40
2022-11-24T16:16:41.875Z,24.63
2022-11-24T16:19:13.675Z,27.83
2022-11-24T16:21:41.889Z,25.00
2022-11-24T16:24:09.962Z,29.40
2022-11-24T16:26:37.203Z,25.73
2022-11-24T16:29:16.984Z,24.63
2022-11-24T16:31:53.765Z,22.97
2022-11-24T16:34:27.608Z,22.53
2022-11-24T16:36:55.256Z,23.23
2022-11-24T16:39:25.462Z,23.27
2022-11-24T16:41:52.912Z,23.47
2022-11-24T16:44:27.363Z,21.97
2022-11-24T16:46:54.873Z,23.00
2022-11-24T16:49:22.082Z,22.23
2022-11-24T16:51:49.360Z,22.33
2022-11-24T16:54:16.555Z,22.60
2022-11-24T16:56:43.801Z,23.10
2022-11-24T16:59:12.125Z,23.60
2022-11-24T17:01:47.221Z,24.60
2022-11-24T17:04:14.981Z,24.17
2022-11-24T17:06:42.414Z,25.70
2022-11-24T17:09:09.678Z,27.63
2022-11-24T17:11:36.972Z,26.70
2022-11-24T17:14:06.823Z,27.87
2022-11-24T17:16:37.042Z,27.40
2022-11-24T17:19:10.078Z,27.67
2022-11-24T17:21:37.387Z,27.60
2022-11-24T17:24:05.727Z,26.33
2022-11-24T17:26:33.468Z,26.70
2022-11-24T17:29:00.769Z,27.63
2022-11-24T17:31:32.106Z,28.93
2022-11-24T17:34:03.005Z,29.70
2022-11-24T17:36:34.491Z,31.13
2022-11-24T17:39:06.781Z,33.50
2022-11-24T17:41:38.105Z,30.33
2022-11-24T17:44:09.066Z,33.30
2022-11-24T17:46:39.217Z,30.47
2022-11-24T17:49:08.339Z,29.30
2022-11-24T17:51:35.621Z,29.30
2022-11-24T17:54:18.650Z,28.03
2022-11-24T17:56:50.551Z,28.03
2022-11-24T17:59:17.829Z,28.10
2022-11-24T18:01:45.087Z,25.97
2022-11-24T18:04:16.703Z,27.30
2022-11-24T18:06:47.365Z,36.78
2022-11-24T18:09:15.640Z,29.67
2022-11-24T18:11:43.985Z,29.27
2022-11-24T18:14:11.250Z,28.03
2022-11-24T18:16:38.495Z,28.23
2022-11-24T18:19:10.956Z,29.17
2022-11-24T18:21:43.671Z,27.60
2022-11-24T18:24:14.083Z,28.53
2022-11-24T18:26:42.569Z,29.17
2022-11-24T18:29:10.470Z,28.83
2022-11-24T18:31:38.582Z,29.70
2022-11-24T18:34:06.503Z,30.13
2022-11-24T18:36:34.737Z,29.10
2022-11-24T18:39:04.719Z,31.37
2022-11-24T18:41:32.456Z,30.67
2022-11-24T18:44:02.415Z,30.87
2022-11-24T18:46:30.252Z,32.57
2022-11-24T18:48:57.482Z,32.27
2022-11-24T18:51:25.343Z,32.83
2022-11-24T18:54:17.403Z,34.83
2022-11-24T18:56:51.600Z,33.67
2022-11-24T18:59:19.441Z,32.20
2022-11-24T19:01:54.225Z,34.47
2022-11-24T19:04:21.801Z,34.63
2022-11-24T19:06:53.135Z,34.40
2022-11-24T19:09:22.654Z,33.17
2022-11-24T19:11:50.950Z,33.43
2022-11-24T19:14:21.644Z,33.57
2022-11-24T19:16:51.827Z,34.70
2022-11-24T19:19:25.414Z,37.47
2022-11-24T19:21:55.706Z,35.97
2022-11-24T19:24:22.978Z,36.73
2022-11-24T19:26:53.857Z,37.83
2022-11-24T19:29:25.108Z,36.43
2022-11-24T19:31:55.046Z,36.07
2022-11-24T19:34:23.510Z,34.47
2022-11-24T19:36:56.810Z,31.57
2022-11-24T19:39:24.164Z,30.70
2022-11-24T19:41:53.196Z,26.77
2022-11-24T19:44:20.917Z,26.13
2022-11-24T19:46:48.503Z,26.43
2022-11-24T19:49:17.851Z,28.40
2022-11-24T19:51:48.879Z,26.77
2022-11-24T19:54:21.077Z,31.33
2022-11-24T19:56:52.339Z,31.17
2022-11-24T19:59:30.298Z,30.70
2022-11-24T20:01:58.238Z,27.00
2022-11-24T20:04:27.302Z,28.67
2022-11-24T20:07:00.060Z,25.47
2022-11-24T20:09:27.711Z,26.63
2022-11-24T20:11:55.258Z,25.73
2022-11-24T20:14:23.623Z,27.37
2022-11-24T20:16:52.524Z,24.47
2022-11-24T20:19:20.013Z,28.47
2022-11-24T20:24:34.171Z,28.17
2022-11-24T20:27:03.783Z,28.53
2022-11-24T20:29:34.222Z,26.87
2022-11-24T20:32:02.113Z,27.53
2022-11-24T20:34:32.175Z,29.33
2022-11-24T20:37:02.766Z,27.67
2022-11-24T20:39:31.350Z,27.37
2022-11-24T20:42:01.774Z,27.63
2022-11-24T20:44:32.702Z,25.50
2022-11-24T20:47:01.615Z,25.43
2022-11-24T20:49:30.248Z,25.83
2022-11-24T20:51:57.930Z,25.53
2022-11-24T20:54:25.515Z,26.53
2022-11-24T20:59:35.108Z,27.23
2022-11-24T21:02:04.358Z,28.80
2022-11-24T21:04:35.884Z,29.17
2022-11-24T21:07:04.910Z,25.83
2022-11-24T21:09:33.962Z,27.30
2022-11-24T21:12:01.620Z,26.97
2022-11-24T21:14:35.016Z,27.17
2022-11-24T21:17:02.623Z,28.63
2022-11-24T21:19:30.648Z,29.27
2022-11-24T21:21:57.890Z,27.20
2022-11-24T21:24:25.110Z,28.93
2022-11-24T21:26:56.668Z,29.60
2022-11-24T21:29:25.593Z,28.93
2022-11-24T21:31:53.553Z,28.43
2022-11-24T21:34:22.331Z,28.97
2022-11-24T21:36:49.655Z,28.10
2022-11-24T21:39:19.244Z,26.43
2022-11-24T21:41:46.856Z,28.57
2022-11-24T21:44:21.956Z,27.80
2022-11-24T21:46:54.400Z,26.90
2022-11-24T21:49:23.448Z,25.90
2022-11-24T21:51:55.454Z,24.90
2022-11-24T21:54:23.374Z,24.60
2022-11-24T21:56:51.193Z,26.93
2022-11-24T21:59:21.524Z,26.70
2022-11-24T22:01:50.162Z,26.43
2022-11-24T22:04:17.508Z,26.13
2022-11-24T22:06:45.939Z,27.23
2022-11-24T22:09:17.784Z,27.43
2022-11-24T22:11:46.003Z,27.10
2022-11-24T22:14:18.241Z,26.97
2022-11-24T22:16:46.566Z,28.20
2022-11-24T22:19:16.177Z,31.00
2022-11-24T22:21:45.404Z,28.80
2022-11-24T22:24:13.086Z,28.67
2022-11-24T22:26:40.324Z,28.03
2022-11-24T22:29:08.393Z,29.60
2022-11-24T22:31:38.082Z,28.50
2022-11-24T22:34:05.367Z,29.73
2022-11-24T22:36:33.041Z,29.17
2022-11-24T22:39:04.871Z,29.90
2022-11-24T22:41:34.323Z,30.30
2022-11-24T22:44:03.015Z,29.57
2022-11-24T22:46:35.105Z,29.53
2022-11-24T22:49:05.918Z,29.90
2022-11-24T22:51:34.613Z,31.53
2022-11-24T22:54:04.016Z,29.50
2022-11-24T22:56:32.585Z,31.10
2022-11-24T22:59:02.288Z,30.47
2022-11-24T23:01:30.627Z,31.33
2022-11-24T23:03:58.001Z,31.77
2022-11-24T23:06:29.441Z,30.30
2022-11-24T23:08:59.064Z,30.70
